Time;durP1;ratioP1;P1;durP2;ratioP2;P2;SDS_P1;SDS_P2;PMS_P1;PMS_P2;Temp;Humidity;BMP_temperature;BMP_pressure;BME280_temperature;BME280_humidity;BME280_pressure;Samples;Min_cycle;Max_cycle;Signal;HPM_P1;HPM_P2
2023/03/04 00:01:03;;;;;;;16.33;2.55;;;;;;;;;;5022994;28;20033;-70
2023/03/04 00:03:29;;;;;;;23.75;2.30;;;;;;;;;;5022241;28;20372;-69
2023/03/04 00:05:56;;;;;;;15.57;2.10;;;;;;;;;;5005237;28;20028;-69
2023/03/04 00:08:24;;;;;;;22.02;2.58;;;;;;;;;;5023248;28;20044;-68
2023/03/04 00:10:49;;;;;;;19.45;3.17;;;;;;;;;;5020108;28;20030;-69
2023/03/04 00:13:15;;;;;;;23.98;3.40;;;;;;;;;;5021494;28;20466;-70
2023/03/04 00:15:41;;;;;;;18.25;2.25;;;;;;;;;;5021413;28;20029;-69
2023/03/04 00:18:08;;;;;;;14.52;2.17;;;;;;;;;;5022804;28;20187;-69
2023/03/04 00:20:33;;;;;;;20.90;2.55;;;;;;;;;;5022431;28;20071;-70
2023/03/04 00:22:59;;;;;;;17.20;2.50;;;;;;;;;;4988324;28;20144;-69
2023/03/04 00:25:24;;;;;;;20.95;2.72;;;;;;;;;;5023449;28;20486;-69
2023/03/04 00:27:49;;;;;;;19.40;2.20;;;;;;;;;;5022396;28;20029;-69
2023/03/04 00:30:15;;;;;;;18.75;2.20;;;;;;;;;;5022645;28;20091;-69
2023/03/04 00:32:42;;;;;;;18.67;2.95;;;;;;;;;;5022498;28;20383;-68
2023/03/04 00:35:08;;;;;;;16.85;2.45;;;;;;;;;;5023379;28;20091;-69
2023/03/04 00:37:35;;;;;;;16.10;2.08;;;;;;;;;;5021792;28;20033;-68
2023/03/04 00:40:01;;;;;;;17.92;2.33;;;;;;;;;;5020795;28;20426;-70
2023/03/04 00:42:26;;;;;;;17.08;2.65;;;;;;;;;;5021397;28;20022;-68
2023/03/04 00:44:51;;;;;;;15.70;2.75;;;;;;;;;;5020406;28;20034;-70
2023/03/04 00:47:17;;;;;;;11.38;2.22;;;;;;;;;;5034403;28;20090;-70
2023/03/04 00:49:42;;;;;;;18.35;3.17;;;;;;;;;;5042065;28;20052;-70
2023/03/04 00:52:07;;;;;;;17.73;2.63;;;;;;;;;;5040842;28;20029;-70
2023/03/04 00:54:33;;;;;;;18.02;3.03;;;;;;;;;;5023140;28;20032;-68
2023/03/04 00:57:01;;;;;;;15.63;2.03;;;;;;;;;;5042299;28;20036;-68
2023/03/04 00:59:26;;;;;;;14.48;2.30;;;;;;;;;;5038222;28;20450;-69
2023/03/04 01:01:51;;;;;;;14.10;2.60;;;;;;;;;;5021079;28;20063;-69
2023/03/04 01:04:19;;;;;;;19.35;2.53;;;;;;;;;;5020932;28;20059;-69
2023/03/04 01:06:44;;;;;;;21.45;2.92;;;;;;;;;;5023045;28;20033;-69
2023/03/04 01:09:14;;;;;;;17.70;2.63;;;;;;;;;;5021941;28;20080;-68
2023/03/04 01:11:40;;;;;;;16.83;2.58;;;;;;;;;;5037089;28;20029;-69
2023/03/04 01:14:05;;;;;;;15.45;2.55;;;;;;;;;;5020602;28;20421;-69
2023/03/04 01:16:30;;;;;;;19.55;2.30;;;;;;;;;;5024330;28;20033;-70
2023/03/04 01:18:56;;;;;;;15.10;2.28;;;;;;;;;;5026494;28;20029;-70
2023/03/04 01:21:23;;;;;;;12.23;1.60;;;;;;;;;;5026000;28;20061;-68
2023/03/04 01:23:49;;;;;;;23.15;3.15;;;;;;;;;;5026149;28;20287;-69
2023/03/04 01:26:14;;;;;;;14.27;2.15;;;;;;;;;;5026480;28;20455;-69
2023/03/04 01:28:39;;;;;;;21.58;2.53;;;;;;;;;;5023986;28;20049;-69
2023/03/04 01:31:05;;;;;;;15.90;3.35;;;;;;;;;;5058075;28;20555;-69
2023/03/04 01:33:32;;;;;;;11.95;2.67;;;;;;;;;;5026173;28;20138;-69
2023/03/04 01:36:00;;;;;;;16.55;2.90;;;;;;;;;;5026092;28;20037;-70
2023/03/04 01:38:25;;;;;;;18.60;3.63;;;;;;;;;;5057796;28;20029;-69
2023/03/04 01:40:51;;;;;;;21.92;3.70;;;;;;;;;;5026236;28;20029;-69
2023/03/04 01:43:23;;;;;;;15.15;2.70;;;;;;;;;;5025769;28;20044;-69
2023/03/04 01:45:49;;;;;;;16.55;3.38;;;;;;;;;;5025548;28;20449;-68
2023/03/04 01:48:18;;;;;;;18.55;2.80;;;;;;;;;;5025941;28;20028;-68
2023/03/04 01:50:43;;;;;;;16.13;2.80;;;;;;;;;;5025712;28;20037;-68
2023/03/04 01:53:19;;;;;;;23.55;3.10;;;;;;;;;;5024173;28;20048;-69
2023/03/04 01:55:44;;;;;;;30.45;6.68;;;;;;;;;;5025824;28;20048;-69
2023/03/04 01:58:12;;;;;;;22.48;3.72;;;;;;;;;;5026130;28;20050;-68
2023/03/04 02:00:40;;;;;;;14.63;2.40;;;;;;;;;;5024296;28;20028;-69
2023/03/04 02:03:06;;;;;;;19.17;3.03;;;;;;;;;;5025863;28;20022;-68
2023/03/04 02:05:32;;;;;;;22.00;2.00;;;;;;;;;;5025665;28;20049;-68
2023/03/04 02:07:58;;;;;;;15.23;2.67;;;;;;;;;;5057215;28;20033;-68
2023/03/04 02:10:24;;;;;;;17.27;2.90;;;;;;;;;;5025248;28;20038;-68
2023/03/04 02:12:49;;;;;;;20.85;2.70;;;;;;;;;;5004950;28;20240;-68
2023/03/04 02:15:15;;;;;;;15.10;2.45;;;;;;;;;;5004232;28;20026;-68
2023/03/04 02:17:42;;;;;;;15.32;2.20;;;;;;;;;;5004367;28;20054;-68
2023/03/04 02:20:11;;;;;;;14.18;2.85;;;;;;;;;;5003883;28;20057;-68
2023/03/04 02:22:44;;;;;;;15.18;2.58;;;;;;;;;;5005400;28;20364;-68
2023/03/04 02:25:15;;;;;;;15.80;3.83;;;;;;;;;;5023070;28;20034;-68
2023/03/04 02:27:40;;;;;;;19.60;3.65;;;;;;;;;;5055907;28;20487;-68
2023/03/04 02:30:06;;;;;;;29.83;6.13;;;;;;;;;;5025200;28;20049;-69
2023/03/04 02:32:33;;;;;;;22.80;5.75;;;;;;;;;;5024708;28;20029;-70
2023/03/04 02:35:01;;;;;;;13.85;2.50;;;;;;;;;;5025037;28;20366;-68
2023/03/04 02:37:26;;;;;;;16.70;3.28;;;;;;;;;;5025504;28;20025;-68
2023/03/04 02:39:51;;;;;;;24.13;4.53;;;;;;;;;;5024371;28;20030;-66
2023/03/04 02:42:19;;;;;;;14.80;2.75;;;;;;;;;;5025315;28;20025;-70
2023/03/04 02:44:47;;;;;;;13.80;2.40;;;;;;;;;;5039568;28;20033;-67
2023/03/04 02:47:13;;;;;;;27.23;3.63;;;;;;;;;;5024752;28;20398;-67
2023/03/04 02:49:40;;;;;;;13.85;2.45;;;;;;;;;;5025630;28;20095;-68
2023/03/04 02:52:08;;;;;;;18.58;2.30;;;;;;;;;;5023392;28;20110;-68
2023/03/04 02:54:36;;;;;;;17.48;2.70;;;;;;;;;;5022896;28;20108;-68
2023/03/04 02:57:03;;;;;;;18.95;2.25;;;;;;;;;;5024497;28;20084;-68
2023/03/04 02:59:31;;;;;;;15.57;2.40;;;;;;;;;;5006227;28;20025;-68
2023/03/04 03:01:56;;;;;;;20.35;5.50;;;;;;;;;;5024379;28;20041;-68
2023/03/04 03:04:22;;;;;;;25.65;3.22;;;;;;;;;;5039616;28;20506;-69
2023/03/04 03:06:47;;;;;;;12.98;2.50;;;;;;;;;;5022601;28;20038;-68
2023/03/04 03:09:12;;;;;;;17.95;3.10;;;;;;;;;;5024506;28;20112;-68
2023/03/04 03:11:40;;;;;;;14.15;3.00;;;;;;;;;;5024881;28;20064;-68
2023/03/04 03:14:05;;;;;;;17.23;2.47;;;;;;;;;;5022825;28;20026;-68
2023/03/04 03:16:31;;;;;;;14.20;2.53;;;;;;;;;;5039988;28;20552;-69
2023/03/04 03:18:56;;;;;;;18.00;2.22;;;;;;;;;;5024672;28;20030;-68
2023/03/04 03:21:24;;;;;;;20.85;2.03;;;;;;;;;;5023942;28;20123;-68
2023/03/04 03:23:49;;;;;;;14.77;2.03;;;;;;;;;;5024320;28;20038;-67
2023/03/04 03:26:15;;;;;;;23.20;2.50;;;;;;;;;;5024090;28;20044;-68
2023/03/04 03:28:40;;;;;;;18.85;3.10;;;;;;;;;;5024044;28;20099;-68
2023/03/04 03:31:06;;;;;;;16.25;3.03;;;;;;;;;;5023839;28;20037;-69
2023/03/04 03:33:31;;;;;;;17.65;2.30;;;;;;;;;;5017778;28;20060;-69
2023/03/04 03:35:56;;;;;;;17.05;2.47;;;;;;;;;;5008729;28;20093;-68
2023/03/04 03:38:21;;;;;;;19.23;1.90;;;;;;;;;;5021174;28;20060;-67
2023/03/04 03:40:49;;;;;;;15.75;2.15;;;;;;;;;;5020548;28;20038;-68
2023/03/04 03:43:17;;;;;;;15.57;2.42;;;;;;;;;;5019240;28;20107;-67
2023/03/04 03:45:42;;;;;;;14.85;1.75;;;;;;;;;;5019133;28;20501;-67
2023/03/04 03:48:09;;;;;;;15.38;2.60;;;;;;;;;;5035615;28;20080;-67
2023/03/04 03:50:37;;;;;;;16.08;2.40;;;;;;;;;;5003994;28;20459;-68
2023/03/04 03:53:03;;;;;;;17.00;2.53;;;;;;;;;;5003831;28;20046;-68
2023/03/04 03:55:31;;;;;;;10.70;1.98;;;;;;;;;;5034798;28;20057;-68
2023/03/04 03:57:56;;;;;;;18.90;1.95;;;;;;;;;;5023278;28;20026;-67
2023/03/04 04:00:21;;;;;;;15.20;2.38;;;;;;;;;;5021497;28;20049;-68
2023/03/04 04:02:47;;;;;;;10.93;1.45;;;;;;;;;;5022236;28;20025;-68
2023/03/04 04:05:12;;;;;;;20.73;2.30;;;;;;;;;;5023197;28;20049;-68
2023/03/04 04:07:37;;;;;;;16.45;2.50;;;;;;;;;;5023794;28;20446;-68
2023/03/04 04:10:04;;;;;;;15.50;2.25;;;;;;;;;;5023452;28;20068;-68
2023/03/04 04:12:29;;;;;;;20.95;2.97;;;;;;;;;;5022046;28;20072;-68
2023/03/04 04:14:54;;;;;;;15.30;2.08;;;;;;;;;;5037446;28;20038;-68
2023/03/04 04:17:19;;;;;;;16.38;2.38;;;;;;;;;;5023743;28;20040;-68
2023/03/04 04:19:45;;;;;;;12.38;1.95;;;;;;;;;;5022541;28;20029;-67
2023/03/04 04:22:12;;;;;;;12.63;1.95;;;;;;;;;;5037289;28;20076;-68
2023/03/04 04:24:40;;;;;;;10.05;2.50;;;;;;;;;;5022928;28;20068;-68
2023/03/04 04:27:05;;;;;;;14.55;1.98;;;;;;;;;;5021846;28;20065;-67
2023/03/04 04:29:30;;;;;;;12.88;2.33;;;;;;;;;;5020947;28;20209;-69
2023/03/04 04:31:56;;;;;;;22.90;2.28;;;;;;;;;;5021852;28;20028;-69
2023/03/04 04:34:21;;;;;;;15.32;2.20;;;;;;;;;;5023001;28;20032;-68
2023/03/04 04:36:46;;;;;;;8.20;1.80;;;;;;;;;;5023241;28;20510;-69
2023/03/04 04:39:12;;;;;;;15.43;2.45;;;;;;;;;;5037746;28;20033;-67
2023/03/04 04:41:40;;;;;;;20.17;2.47;;;;;;;;;;5022789;28;20512;-67
2023/03/04 04:44:08;;;;;;;14.80;2.10;;;;;;;;;;5035902;28;20495;-68
2023/03/04 04:46:34;;;;;;;19.50;2.25;;;;;;;;;;5044247;28;20029;-67
2023/03/04 04:48:59;;;;;;;14.70;2.15;;;;;;;;;;5042707;28;20440;-70
2023/03/04 04:51:24;;;;;;;14.63;1.75;;;;;;;;;;5041651;28;20096;-69
2023/03/04 04:53:50;;;;;;;11.90;1.42;;;;;;;;;;5042858;28;20037;-68
2023/03/04 04:56:16;;;;;;;17.63;2.30;;;;;;;;;;5026624;28;20037;-69
2023/03/04 04:58:42;;;;;;;14.50;2.42;;;;;;;;;;5023586;28;20120;-69
2023/03/04 05:01:07;;;;;;;14.23;2.53;;;;;;;;;;5054220;28;20144;-68
2023/03/04 05:03:34;;;;;;;16.00;2.50;;;;;;;;;;5022773;28;20033;-68
2023/03/04 05:06:01;;;;;;;23.75;2.67;;;;;;;;;;5022134;28;20100;-68
2023/03/04 05:08:26;;;;;;;20.63;2.45;;;;;;;;;;5022751;28;20030;-68
2023/03/04 05:10:52;;;;;;;15.63;2.33;;;;;;;;;;5022299;28;20021;-68
2023/03/04 05:13:19;;;;;;;20.30;2.17;;;;;;;;;;5020870;28;20075;-68
2023/03/04 05:15:45;;;;;;;17.10;2.78;;;;;;;;;;5022495;28;20014;-69
2023/03/04 05:18:10;;;;;;;13.77;2.40;;;;;;;;;;5037199;28;20033;-70
2023/03/04 05:20:36;;;;;;;16.70;1.95;;;;;;;;;;5020358;28;20026;-68
2023/03/04 05:23:01;;;;;;;8.13;1.40;;;;;;;;;;5036837;28;20555;-68
2023/03/04 05:25:27;;;;;;;6.10;1.30;;;;;;;;;;5021207;28;20156;-68
2023/03/04 05:27:52;;;;;;;9.93;1.67;;;;;;;;;;5022862;28;20112;-68
2023/03/04 05:30:17;;;;;;;14.15;2.00;;;;;;;;;;5036800;28;20045;-68
2023/03/04 05:32:42;;;;;;;9.00;1.58;;;;;;;;;;5038000;28;20036;-69
2023/03/04 05:35:08;;;;;;;15.18;2.20;;;;;;;;;;5023848;28;20075;-69
2023/03/04 05:37:33;;;;;;;16.42;1.75;;;;;;;;;;5020453;28;20036;-68
2023/03/04 05:39:58;;;;;;;10.02;1.92;;;;;;;;;;5037310;28;20470;-68
2023/03/04 05:42:26;;;;;;;17.92;1.95;;;;;;;;;;5019923;28;20290;-68
2023/03/04 05:44:51;;;;;;;9.95;2.13;;;;;;;;;;5022372;28;20025;-68
2023/03/04 05:47:17;;;;;;;15.27;1.88;;;;;;;;;;5034691;28;20025;-68
2023/03/04 05:49:43;;;;;;;17.60;2.42;;;;;;;;;;5039819;28;20053;-68
2023/03/04 05:52:09;;;;;;;15.13;1.90;;;;;;;;;;5042096;28;20470;-68
2023/03/04 05:54:34;;;;;;;9.88;1.65;;;;;;;;;;5028758;28;20052;-68
2023/03/04 05:56:59;;;;;;;10.82;1.52;;;;;;;;;;5021776;28;20025;-68
2023/03/04 05:59:24;;;;;;;10.82;2.00;;;;;;;;;;5001507;28;20026;-68
2023/03/04 06:01:50;;;;;;;13.18;2.30;;;;;;;;;;5002602;28;20096;-68
2023/03/04 06:04:15;;;;;;;6.90;1.60;;;;;;;;;;5005740;28;20030;-68
2023/03/04 06:06:45;;;;;;;11.15;1.20;;;;;;;;;;5005398;28;20026;-69
2023/03/04 06:09:10;;;;;;;8.80;1.15;;;;;;;;;;5036955;28;20146;-68
2023/03/04 06:11:35;;;;;;;12.38;1.60;;;;;;;;;;5003898;28;20133;-69
2023/03/04 06:14:01;;;;;;;9.73;1.13;;;;;;;;;;5004105;28;20042;-69
2023/03/04 06:16:26;;;;;;;10.55;1.70;;;;;;;;;;5005705;28;20483;-68
2023/03/04 06:18:51;;;;;;;8.10;1.30;;;;;;;;;;5021721;28;20099;-69
2023/03/04 06:21:17;;;;;;;10.82;1.30;;;;;;;;;;5024804;28;20036;-68
2023/03/04 06:23:45;;;;;;;12.18;1.90;;;;;;;;;;5024868;28;20144;-69
2023/03/04 06:26:14;;;;;;;15.73;1.40;;;;;;;;;;5025048;28;20080;-69
2023/03/04 06:28:39;;;;;;;8.00;1.52;;;;;;;;;;5024776;28;20311;-69
2023/03/04 06:31:05;;;;;;;11.23;1.60;;;;;;;;;;5025010;28;20018;-68
2023/03/04 06:33:30;;;;;;;19.15;2.38;;;;;;;;;;5023027;28;20028;-69
2023/03/04 06:35:58;;;;;;;18.20;1.92;;;;;;;;;;5022966;28;20509;-69
2023/03/04 06:38:24;;;;;;;15.23;1.90;;;;;;;;;;5024975;28;20033;-68
2023/03/04 06:40:51;;;;;;;13.80;1.77;;;;;;;;;;5025389;28;20556;-69
2023/03/04 06:43:17;;;;;;;18.65;1.77;;;;;;;;;;5025086;28;20088;-69
2023/03/04 06:45:42;;;;;;;9.48;1.55;;;;;;;;;;5025068;28;20030;-68
2023/03/04 06:48:08;;;;;;;16.13;2.17;;;;;;;;;;5024344;28;20025;-69
2023/03/04 06:50:35;;;;;;;20.52;2.60;;;;;;;;;;5024133;28;20463;-68
2023/03/04 06:53:01;;;;;;;19.35;2.65;;;;;;;;;;5024713;28;20382;-70
2023/03/04 06:55:26;;;;;;;25.17;2.90;;;;;;;;;;5024935;28;20033;-69
2023/03/04 06:57:53;;;;;;;9.77;1.55;;;;;;;;;;5024442;28;20022;-69
2023/03/04 07:00:23;;;;;;;8.15;1.23;;;;;;;;;;5024725;28;20120;-68
2023/03/04 07:02:50;;;;;;;12.43;1.60;;;;;;;;;;5024441;28;20240;-68
2023/03/04 07:05:16;;;;;;;7.35;1.42;;;;;;;;;;5024700;28;20030;-69
2023/03/04 07:07:41;;;;;;;8.38;1.35;;;;;;;;;;5039957;28;20036;-69
2023/03/04 07:10:08;;;;;;;12.38;1.85;;;;;;;;;;5024637;28;20628;-69
2023/03/04 07:12:36;;;;;;;12.73;1.70;;;;;;;;;;5038958;28;20041;-68
2023/03/04 07:15:01;;;;;;;12.70;1.70;;;;;;;;;;5023066;28;20426;-68
2023/03/04 07:17:27;;;;;;;9.45;1.45;;;;;;;;;;5024044;28;20033;-68
2023/03/04 07:19:52;;;;;;;13.52;1.67;;;;;;;;;;5024298;28;20072;-69
2023/03/04 07:22:17;;;;;;;14.40;2.15;;;;;;;;;;5023527;28;20037;-69
2023/03/04 07:24:43;;;;;;;14.60;1.83;;;;;;;;;;5024486;28;20513;-69
2023/03/04 07:27:08;;;;;;;8.13;1.20;;;;;;;;;;5055623;28;20037;-69
2023/03/04 07:29:33;;;;;;;12.50;1.50;;;;;;;;;;5024450;28;20038;-69
2023/03/04 07:31:59;;;;;;;10.07;1.40;;;;;;;;;;5024089;28;20083;-69
2023/03/04 07:34:24;;;;;;;10.85;1.30;;;;;;;;;;5024203;28;20033;-69
2023/03/04 07:36:49;;;;;;;12.05;1.23;;;;;;;;;;5056090;28;20021;-69
2023/03/04 07:39:15;;;;;;;9.25;1.70;;;;;;;;;;5024006;28;20137;-68
2023/03/04 07:41:40;;;;;;;13.85;1.65;;;;;;;;;;5022219;28;20029;-69
2023/03/04 07:44:06;;;;;;;11.95;1.73;;;;;;;;;;5023185;28;20030;-69
2023/03/04 07:46:32;;;;;;;10.23;1.60;;;;;;;;;;5023676;28;20056;-69
2023/03/04 07:48:57;;;;;;;14.80;2.08;;;;;;;;;;5021157;28;20049;-69
2023/03/04 07:51:25;;;;;;;10.73;1.55;;;;;;;;;;5022141;28;20033;-69
2023/03/04 07:53:52;;;;;;;11.43;1.73;;;;;;;;;;5023694;28;20032;-69
2023/03/04 07:56:18;;;;;;;14.45;2.05;;;;;;;;;;5023342;28;20038;-68
2023/03/04 07:58:43;;;;;;;13.30;2.47;;;;;;;;;;5023385;28;20049;-70
2023/03/04 08:01:12;;;;;;;8.18;1.50;;;;;;;;;;5023803;28;20053;-69
2023/03/04 08:03:38;;;;;;;16.83;2.03;;;;;;;;;;5021910;28;20053;-69
2023/03/04 08:06:07;;;;;;;15.25;1.98;;;;;;;;;;5023327;28;20032;-69
2023/03/04 08:08:32;;;;;;;11.32;1.90;;;;;;;;;;5021404;28;20378;-70
2023/03/04 08:10:58;;;;;;;11.63;1.70;;;;;;;;;;5022908;28;20021;-72
2023/03/04 08:13:25;;;;;;;12.23;1.52;;;;;;;;;;5054451;28;20030;-70
2023/03/04 08:15:51;;;;;;;9.10;1.23;;;;;;;;;;5037993;28;20184;-70
2023/03/04 08:18:16;;;;;;;8.05;1.33;;;;;;;;;;5022979;28;20455;-70
2023/03/04 08:20:42;;;;;;;7.25;1.50;;;;;;;;;;5022641;28;20026;-69
2023/03/04 08:23:07;;;;;;;9.30;1.63;;;;;;;;;;5037609;28;20045;-68
2023/03/04 08:25:32;;;;;;;12.50;1.75;;;;;;;;;;5022607;28;20119;-69
2023/03/04 08:27:58;;;;;;;18.77;1.88;;;;;;;;;;5023402;28;20021;-69
2023/03/04 08:30:23;;;;;;;12.05;1.92;;;;;;;;;;5023125;28;20049;-69
2023/03/04 08:32:48;;;;;;;15.27;1.60;;;;;;;;;;5037887;28;20026;-69
2023/03/04 08:35:14;;;;;;;15.57;1.85;;;;;;;;;;5022592;28;20029;-69
2023/03/04 08:37:39;;;;;;;11.25;1.45;;;;;;;;;;5023222;28;20026;-69
2023/03/04 08:40:04;;;;;;;14.23;1.73;;;;;;;;;;5022169;28;20025;-71
2023/03/04 08:42:32;;;;;;;18.45;2.25;;;;;;;;;;5020843;28;20061;-69
2023/03/04 08:44:57;;;;;;;9.30;1.23;;;;;;;;;;5021974;28;20025;-69
2023/03/04 08:47:22;;;;;;;10.93;1.40;;;;;;;;;;5021209;28;20542;-70
2023/03/04 08:49:48;;;;;;;10.50;1.67;;;;;;;;;;5022594;28;20035;-70
2023/03/04 08:52:13;;;;;;;13.27;1.80;;;;;;;;;;5037659;28;20034;-70
2023/03/04 08:54:38;;;;;;;11.95;1.70;;;;;;;;;;5022433;28;20124;-70
2023/03/04 08:57:06;;;;;;;11.40;1.63;;;;;;;;;;5022469;28;20030;-70
2023/03/04 08:59:31;;;;;;;9.38;1.35;;;;;;;;;;5022348;28;20040;-70
2023/03/04 09:01:56;;;;;;;16.20;2.42;;;;;;;;;;5054229;28;20313;-69
2023/03/04 09:04:22;;;;;;;12.75;1.90;;;;;;;;;;5022397;28;20139;-70
2023/03/04 09:06:47;;;;;;;14.77;1.63;;;;;;;;;;5022783;28;20059;-70
2023/03/04 09:09:12;;;;;;;12.95;2.08;;;;;;;;;;5022214;28;20087;-69
2023/03/04 09:11:37;;;;;;;13.93;1.95;;;;;;;;;;5022533;28;20025;-71
2023/03/04 09:14:03;;;;;;;17.63;2.47;;;;;;;;;;5022711;28;20033;-70
2023/03/04 09:16:28;;;;;;;16.90;1.88;;;;;;;;;;5020297;28;20029;-71
2023/03/04 09:18:53;;;;;;;17.48;2.72;;;;;;;;;;5021442;28;20048;-69
2023/03/04 09:21:18;;;;;;;8.90;1.80;;;;;;;;;;5020719;28;20046;-70
2023/03/04 09:23:44;;;;;;;16.02;2.20;;;;;;;;;;5004312;28;20080;-70
2023/03/04 09:26:28;;;;;;;12.98;2.33;;;;;;;;;;5022226;28;20035;-69
2023/03/04 09:28:57;;;;;;;15.18;2.20;;;;;;;;;;5022071;28;20048;-70
2023/03/04 09:31:25;;;;;;;15.30;2.13;;;;;;;;;;5022022;28;20112;-70
2023/03/04 09:33:50;;;;;;;13.52;1.98;;;;;;;;;;5053829;28;20101;-69
2023/03/04 09:36:18;;;;;;;13.68;1.83;;;;;;;;;;5022197;28;20026;-69
2023/03/04 09:38:46;;;;;;;13.93;2.20;;;;;;;;;;5025720;28;20044;-69
2023/03/04 09:41:19;;;;;;;14.85;2.25;;;;;;;;;;5026018;28;20022;-70
2023/03/04 09:43:44;;;;;;;18.70;2.25;;;;;;;;;;5024528;28;20108;-70
2023/03/04 09:46:12;;;;;;;21.23;2.78;;;;;;;;;;5026843;28;20116;-70
2023/03/04 09:48:44;;;;;;;16.27;2.10;;;;;;;;;;5007848;28;20040;-69
2023/03/04 09:51:18;;;;;;;14.45;2.05;;;;;;;;;;5057281;28;20018;-70
2023/03/04 09:53:57;;;;;;;11.27;1.63;;;;;;;;;;5025268;28;20018;-71
2023/03/04 09:56:24;;;;;;;14.45;2.08;;;;;;;;;;5007521;28;20489;-70
2023/03/04 09:58:49;;;;;;;14.88;2.38;;;;;;;;;;5004694;28;20038;-69
2023/03/04 10:01:14;;;;;;;12.30;2.25;;;;;;;;;;5017658;28;20053;-69
2023/03/04 10:03:49;;;;;;;12.13;1.65;;;;;;;;;;5023761;28;20029;-70
2023/03/04 10:06:19;;;;;;;9.57;1.73;;;;;;;;;;5025700;28;20029;-70
2023/03/04 10:08:48;;;;;;;14.35;2.28;;;;;;;;;;5023705;28;20044;-71
2023/03/04 10:11:16;;;;;;;8.88;1.45;;;;;;;;;;5025942;28;20030;-70
2023/03/04 10:13:41;;;;;;;15.45;1.65;;;;;;;;;;5024129;28;20434;-72
2023/03/04 10:16:10;;;;;;;8.20;1.30;;;;;;;;;;5024944;28;20035;-71
2023/03/04 10:18:37;;;;;;;6.78;1.10;;;;;;;;;;5023490;28;20052;-68
2023/03/04 10:21:21;;;;;;;8.55;1.83;;;;;;;;;;5007320;28;20037;-69
2023/03/04 10:23:48;;;;;;;12.05;1.50;;;;;;;;;;5023095;28;20044;-70
2023/03/04 10:26:19;;;;;;;7.72;1.10;;;;;;;;;;5023291;28;20109;-69
2023/03/04 10:28:45;;;;;;;14.25;1.50;;;;;;;;;;5025037;28;20469;-68
2023/03/04 10:31:13;;;;;;;10.23;1.95;;;;;;;;;;5007422;28;20036;-68
2023/03/04 10:33:39;;;;;;;9.95;1.50;;;;;;;;;;5025242;28;20152;-70
2023/03/04 10:36:11;;;;;;;12.60;1.73;;;;;;;;;;5025801;28;20077;-71
2023/03/04 10:38:38;;;;;;;11.27;1.90;;;;;;;;;;5023389;28;20059;-70
2023/03/04 10:41:18;;;;;;;17.30;1.88;;;;;;;;;;5024748;28;20628;-69
2023/03/04 10:43:48;;;;;;;10.95;1.75;;;;;;;;;;5023343;28;20045;-71
2023/03/04 10:46:14;;;;;;;11.63;1.40;;;;;;;;;;5039566;28;20021;-69
2023/03/04 10:48:40;;;;;;;12.05;2.22;;;;;;;;;;5022910;28;20251;-71
2023/03/04 10:51:18;;;;;;;12.32;1.83;;;;;;;;;;5024968;28;20525;-69
2023/03/04 10:53:46;;;;;;;19.95;2.60;;;;;;;;;;5024406;28;20028;-70
2023/03/04 10:56:30;;;;;;;15.63;2.10;;;;;;;;;;5024639;28;20100;-70
2023/03/04 10:59:15;;;;;;;18.98;2.70;;;;;;;;;;5024920;28;20033;-71
2023/03/04 11:01:40;;;;;;;19.40;2.30;;;;;;;;;;5024613;28;20192;-71
2023/03/04 11:04:17;;;;;;;13.63;1.92;;;;;;;;;;5022755;28;20061;-72
2023/03/04 11:06:42;;;;;;;26.45;3.17;;;;;;;;;;5024445;28;20037;-70
2023/03/04 11:09:17;;;;;;;14.70;2.78;;;;;;;;;;5024285;28;20034;-71
2023/03/04 11:11:44;;;;;;;16.60;2.22;;;;;;;;;;5024357;28;20062;-71
2023/03/04 11:14:23;;;;;;;11.52;1.95;;;;;;;;;;5024086;28;20399;-70
2023/03/04 11:16:54;;;;;;;16.33;2.20;;;;;;;;;;5022153;28;20467;-70
2023/03/04 11:19:21;;;;;;;14.23;2.65;;;;;;;;;;5039296;28;20030;-71
2023/03/04 11:21:49;;;;;;;17.77;2.97;;;;;;;;;;5021639;28;20117;-69
2023/03/04 11:24:25;;;;;;;14.07;2.47;;;;;;;;;;5024525;28;20502;-71
2023/03/04 11:27:04;;;;;;;19.35;3.28;;;;;;;;;;5024661;28;20395;-71
2023/03/04 11:29:36;;;;;;;18.50;3.50;;;;;;;;;;5022518;28;20579;-71
2023/03/04 11:32:08;;;;;;;19.23;2.70;;;;;;;;;;5023892;28;20395;-70
2023/03/04 11:34:35;;;;;;;12.97;2.80;;;;;;;;;;5023949;28;20095;-70
2023/03/04 11:37:02;;;;;;;14.23;3.47;;;;;;;;;;5022169;28;20041;-71
2023/03/04 11:39:46;;;;;;;14.85;2.72;;;;;;;;;;5024289;28;20486;-71
2023/03/04 11:42:30;;;;;;;19.17;3.58;;;;;;;;;;5023511;28;20033;-70
2023/03/04 11:44:55;;;;;;;17.00;2.33;;;;;;;;;;5023268;28;20106;-71
2023/03/04 11:47:21;;;;;;;17.65;3.42;;;;;;;;;;5038480;28;20026;-70
2023/03/04 11:49:46;;;;;;;16.52;2.85;;;;;;;;;;5023367;28;20037;-70
2023/03/04 11:52:11;;;;;;;16.25;2.92;;;;;;;;;;5005792;28;20029;-73
2023/03/04 11:54:57;;;;;;;17.10;2.80;;;;;;;;;;5023930;28;20037;-70
2023/03/04 11:57:42;;;;;;;13.13;2.30;;;;;;;;;;5021690;28;20084;-70
2023/03/04 12:00:26;;;;;;;10.70;2.13;;;;;;;;;;5020954;28;20030;-70
2023/03/04 12:03:10;;;;;;;15.05;2.30;;;;;;;;;;5023528;28;20067;-71
2023/03/04 12:05:50;;;;;;;15.32;2.45;;;;;;;;;;5021365;28;20036;-71
2023/03/04 12:08:22;;;;;;;19.23;3.05;;;;;;;;;;5021361;28;20030;-71
2023/03/04 12:10:49;;;;;;;21.52;3.28;;;;;;;;;;5021283;28;20490;-71
2023/03/04 12:13:18;;;;;;;18.30;3.00;;;;;;;;;;5023174;28;20057;-72
2023/03/04 12:16:04;;;;;;;18.33;3.38;;;;;;;;;;5021410;28;20075;-71
2023/03/04 12:18:37;;;;;;;17.05;2.67;;;;;;;;;;5022186;28;20022;-72
2023/03/04 12:21:09;;;;;;;20.77;3.70;;;;;;;;;;5022732;28;20034;-72
2023/03/04 12:23:52;;;;;;;15.45;3.15;;;;;;;;;;5022632;28;20034;-71
2023/03/04 12:26:20;;;;;;;17.48;3.47;;;;;;;;;;5023004;28;20029;-74
2023/03/04 12:28:51;;;;;;;16.15;2.17;;;;;;;;;;5023361;28;20056;-71
2023/03/04 12:31:35;;;;;;;18.30;2.10;;;;;;;;;;5022698;28;20022;-70
2023/03/04 12:34:02;;;;;;;18.98;3.40;;;;;;;;;;5022876;28;20293;-70
2023/03/04 12:36:41;;;;;;;15.38;2.72;;;;;;;;;;5022591;28;20025;-73
2023/03/04 12:39:25;;;;;;;23.50;3.40;;;;;;;;;;5022896;28;20021;-70
2023/03/04 12:41:50;;;;;;;17.35;3.55;;;;;;;;;;5022142;28;20382;-72
2023/03/04 12:44:16;;;;;;;19.40;2.80;;;;;;;;;;5023353;28;20018;-72
2023/03/04 12:46:45;;;;;;;15.60;2.88;;;;;;;;;;5037142;28;20386;-72
2023/03/04 12:49:19;;;;;;;15.95;3.28;;;;;;;;;;5022383;28;20434;-71
2023/03/04 12:51:57;;;;;;;18.05;3.00;;;;;;;;;;5019483;28;20117;-70
2023/03/04 12:54:28;;;;;;;21.95;4.03;;;;;;;;;;5020841;28;20080;-73
2023/03/04 12:57:16;;;;;;;20.55;3.35;;;;;;;;;;5022616;28;20044;-73
2023/03/04 13:00:04;;;;;;;25.15;3.25;;;;;;;;;;5019476;28;20108;-70
2023/03/04 13:02:33;;;;;;;24.90;4.30;;;;;;;;;;5020171;28;20038;-71
2023/03/04 13:05:00;;;;;;;22.73;2.75;;;;;;;;;;5021868;28;20108;-71
2023/03/04 13:07:44;;;;;;;23.75;3.70;;;;;;;;;;5023103;28;20482;-70
2023/03/04 13:10:13;;;;;;;22.63;4.05;;;;;;;;;;5023066;28;20056;-70
2023/03/04 13:12:49;;;;;;;23.52;3.53;;;;;;;;;;5028923;28;20057;-69
2023/03/04 13:15:18;;;;;;;24.90;3.58;;;;;;;;;;5026952;28;20025;-71
2023/03/04 13:17:43;;;;;;;24.00;3.40;;;;;;;;;;5028453;28;20018;-70
2023/03/04 13:20:17;;;;;;;23.08;3.00;;;;;;;;;;5027450;28;20112;-73
2023/03/04 13:22:46;;;;;;;26.77;3.03;;;;;;;;;;5028583;28;20515;-70
2023/03/04 13:25:31;;;;;;;14.48;2.58;;;;;;;;;;5026607;28;20049;-70
2023/03/04 13:28:01;;;;;;;14.18;3.08;;;;;;;;;;5028729;28;20033;-70
2023/03/04 13:30:38;;;;;;;17.17;2.88;;;;;;;;;;5028664;28;20146;-71
2023/03/04 13:33:10;;;;;;;24.90;2.83;;;;;;;;;;5029296;28;20029;-71
2023/03/04 13:35:44;;;;;;;21.10;2.67;;;;;;;;;;5028935;28;20037;-70
2023/03/04 13:38:31;;;;;;;27.90;2.70;;;;;;;;;;5028864;28;20264;-71
2023/03/04 13:41:13;;;;;;;15.68;2.95;;;;;;;;;;5028416;28;20036;-71
2023/03/04 13:43:40;;;;;;;21.42;3.40;;;;;;;;;;5027105;28;20036;-71
2023/03/04 13:46:35;;;;;;;16.98;2.40;;;;;;;;;;5031713;28;20029;-70
2023/03/04 13:49:01;;;;;;;14.60;2.42;;;;;;;;;;5017877;28;20052;-70
2023/03/04 13:51:30;;;;;;;15.18;2.58;;;;;;;;;;5048824;28;20078;-70
2023/03/04 13:54:07;;;;;;;18.33;2.50;;;;;;;;;;5048039;28;20509;-70
2023/03/04 13:56:33;;;;;;;14.30;2.47;;;;;;;;;;5028720;28;20108;-70
2023/03/04 13:59:08;;;;;;;19.08;2.63;;;;;;;;;;5028893;28;20160;-69
2023/03/04 14:01:36;;;;;;;14.20;2.15;;;;;;;;;;5028889;28;20075;-71
2023/03/04 14:04:17;;;;;;;18.88;2.92;;;;;;;;;;5028310;28;20033;-71
2023/03/04 14:06:43;;;;;;;16.33;3.22;;;;;;;;;;5028262;28;20564;-71
2023/03/04 14:09:15;;;;;;;13.70;2.15;;;;;;;;;;5028742;28;20045;-70
2023/03/04 14:11:43;;;;;;;13.15;2.03;;;;;;;;;;5028656;28;20060;-70
2023/03/04 14:14:17;;;;;;;15.60;2.53;;;;;;;;;;5028294;28;20034;-70
2023/03/04 14:16:49;;;;;;;15.27;2.03;;;;;;;;;;5048016;28;20059;-70
2023/03/04 14:19:15;;;;;;;9.32;1.92;;;;;;;;;;5048785;28;20480;-70
2023/03/04 14:21:43;;;;;;;18.48;2.88;;;;;;;;;;5046686;28;20037;-69
2023/03/04 14:24:12;;;;;;;26.63;2.72;;;;;;;;;;5044545;28;20039;-70
2023/03/04 14:26:38;;;;;;;13.75;2.03;;;;;;;;;;5044884;28;20033;-70
2023/03/04 14:29:17;;;;;;;14.25;2.22;;;;;;;;;;5045535;28;20121;-70
2023/03/04 14:31:45;;;;;;;11.93;2.25;;;;;;;;;;5045322;28;20489;-70
2023/03/04 14:34:25;;;;;;;15.20;1.80;;;;;;;;;;5044785;28;20051;-69
2023/03/04 14:36:50;;;;;;;8.57;1.52;;;;;;;;;;5044799;28;20116;-70